Pottsville, Texas
Current Conditions -  °F | °C
As of 10:15 AM on Monday 24 Nov 2014 (Local Time) from KMNZ Reporting Station
Clear Clear  
Wind Chill: 45°   Ceiling: Unl
Heat Index: 48°   Visibility: 10mi
Dew Point: 30°   Wind: 7mph
Humidity: 49%   Direction: 330°NNW
Pressure: 30.11"   Gusts: NA
Location:  31.67°N, 98.33°W
Report Text: KMNZ 241615Z AUTO 33006KT 10SM CLR 09/M01 A3011 RMK AO2 T00891013
Loading
Personal Weather Stations






























Interactive Weather Map New forecast layout! Learn more

10-Day Weather Forecast

Advertisements
Track Severe Weather on mobile